Time;durP1;ratioP1;P1;durP2;ratioP2;P2;SDS_P1;SDS_P2;PMS_P1;PMS_P2;Temp;Humidity;BMP_temperature;BMP_pressure;BME280_temperature;BME280_humidity;BME280_pressure;Samples;Min_cycle;Max_cycle;Signal;HPM_P1;HPM_P2
2024/04/17 00:03:30;;;;;;;2.10;2.00;;;6.10;99.90;;;6.64;100.00;97031.25;10967430;26;20654;-61
2024/04/17 00:08:36;;;;;;;1.70;1.70;;;6.10;99.90;;;6.58;100.00;97024.91;10998044;26;20768;-62
2024/04/17 00:13:44;;;;;;;2.37;2.27;;;6.00;99.90;;;6.45;100.00;97015.72;10993815;26;20258;-63
2024/04/17 00:18:50;;;;;;;2.20;2.10;;;5.90;99.90;;;6.57;100.00;97021.50;10979767;26;20264;-63
2024/04/17 00:23:56;;;;;;;2.27;2.17;;;6.00;99.90;;;6.66;100.00;97011.88;10996479;26;20712;-63
2024/04/17 00:29:04;;;;;;;2.33;2.13;;;6.00;99.90;;;6.65;100.00;97012.66;10983162;26;20624;-63
2024/04/17 00:34:09;;;;;;;2.60;2.40;;;6.00;99.90;;;6.41;100.00;97004.50;10989245;26;20303;-64
2024/04/17 00:39:15;;;;;;;2.50;2.30;;;5.90;99.90;;;6.43;100.00;97000.38;10995878;26;20257;-64
2024/04/17 00:44:23;;;;;;;2.60;2.50;;;5.90;99.90;;;6.53;100.00;96999.28;10987510;26;20363;-65
2024/04/17 00:49:29;;;;;;;2.53;2.43;;;6.10;99.90;;;6.63;100.00;96999.00;10995392;26;20254;-64
2024/04/17 00:54:35;;;;;;;3.00;2.80;;;6.10;99.90;;;6.73;100.00;96993.69;11001066;26;20261;-66
2024/04/17 00:59:45;;;;;;;3.67;3.47;;;6.20;99.90;;;6.88;100.00;96998.75;10982570;26;20718;-63
2024/04/17 01:04:50;;;;;;;3.83;3.63;;;6.30;99.90;;;6.82;100.00;96997.53;10995516;26;20257;-63
2024/04/17 01:09:56;;;;;;;3.53;3.33;;;6.20;99.90;;;6.71;100.00;97007.06;10987749;26;20649;-64
2024/04/17 01:15:04;;;;;;;3.67;3.47;;;6.20;99.90;;;6.68;100.00;97002.69;10985475;26;21043;-64
2024/04/17 01:20:10;;;;;;;3.60;3.30;;;6.10;99.90;;;6.60;100.00;97006.44;10994979;26;20301;-64
2024/04/17 01:25:19;;;;;;;2.60;2.50;;;6.00;99.90;;;6.47;100.00;97009.06;10978393;26;20289;-65
2024/04/17 01:30:24;;;;;;;2.20;2.10;;;5.90;99.90;;;6.13;100.00;97009.59;10985856;26;20258;-63
2024/04/17 01:35:30;;;;;;;1.77;1.77;;;5.60;99.90;;;6.00;100.00;97012.16;10979758;26;20254;-63
2024/04/17 01:40:38;;;;;;;1.90;1.80;;;5.50;99.90;;;6.00;100.00;97004.56;10978521;26;20261;-64
2024/04/17 01:45:48;;;;;;;2.00;1.90;;;5.50;99.90;;;5.91;100.00;97009.91;10982900;26;20304;-63
2024/04/17 01:50:53;;;;;;;1.80;1.80;;;5.40;99.90;;;5.92;100.00;97009.13;10998393;26;20736;-64
2024/04/17 01:56:01;;;;;;;2.00;1.90;;;5.40;99.90;;;5.97;100.00;97017.06;10978371;26;20253;-62
2024/04/17 02:01:08;;;;;;;2.00;1.90;;;5.40;99.90;;;5.90;100.00;97022.50;10972098;26;20261;-62
2024/04/17 02:06:15;;;;;;;1.83;1.73;;;5.40;99.90;;;6.00;100.00;97019.78;10976977;26;20296;-62
2024/04/17 02:11:23;;;;;;;2.03;1.93;;;5.50;99.90;;;5.95;100.00;97021.16;10983604;26;20746;-65
2024/04/17 02:16:29;;;;;;;2.00;2.00;;;5.40;99.90;;;5.94;100.00;97019.41;10973101;26;20323;-62
2024/04/17 02:21:35;;;;;;;2.80;2.70;;;5.40;99.90;;;5.99;100.00;97018.03;10984115;26;20796;-63
2024/04/17 02:26:43;;;;;;;1.90;1.90;;;5.40;99.90;;;6.04;100.00;97020.06;10986099;26;20304;-63
2024/04/17 02:31:48;;;;;;;2.13;2.10;;;5.50;99.90;;;6.08;100.00;97014.38;10979594;26;20287;-62
2024/04/17 02:36:54;;;;;;;1.90;1.80;;;5.50;99.90;;;6.12;100.00;97010.34;10975170;26;20253;-62
2024/04/17 02:42:02;;;;;;;1.40;1.40;;;5.50;99.90;;;6.06;100.00;97017.59;10995166;26;20796;-62
2024/04/17 02:47:08;;;;;;;2.00;1.90;;;5.50;99.90;;;6.13;100.00;97017.19;10979587;26;20521;-62
2024/04/17 02:52:13;;;;;;;2.40;2.20;;;5.50;99.90;;;6.17;100.00;97011.50;10979632;26;20262;-62
2024/04/17 02:57:22;;;;;;;2.00;2.00;;;5.50;99.90;;;6.13;100.00;97018.88;10984957;26;20289;-66
2024/04/17 03:02:27;;;;;;;2.10;2.00;;;5.60;99.90;;;6.12;100.00;97025.56;10971577;26;20296;-63
2024/04/17 03:07:32;;;;;;;3.03;1.73;;;5.50;99.90;;;6.21;100.00;97022.72;10982798;26;20304;-63
2024/04/17 03:12:41;;;;;;;2.30;2.20;;;5.60;99.90;;;6.19;100.00;97030.25;10998575;26;20296;-63
2024/04/17 03:17:49;;;;;;;1.80;1.70;;;5.60;99.90;;;6.19;100.00;97025.19;10990904;26;20299;-62
2024/04/17 03:22:55;;;;;;;2.80;2.67;;;5.60;99.90;;;6.24;100.00;97033.09;10992494;26;20828;-63
2024/04/17 03:28:03;;;;;;;2.40;2.30;;;5.60;99.90;;;6.17;100.00;97041.97;10993371;26;20347;-62
2024/04/17 03:33:08;;;;;;;2.57;2.47;;;5.60;99.90;;;6.35;100.00;97036.25;10989241;26;20292;-62
2024/04/17 03:38:14;;;;;;;2.80;2.70;;;5.70;99.90;;;6.46;100.00;97030.13;10993107;26;21119;-62
2024/04/17 03:43:22;;;;;;;3.20;3.00;;;5.60;99.90;;;6.36;100.00;97040.53;10984387;26;20255;-63
2024/04/17 03:48:28;;;;;;;3.40;3.10;;;5.60;99.90;;;6.31;100.00;97037.72;10979684;26;20646;-63
2024/04/17 03:53:33;;;;;;;4.20;3.80;;;5.60;99.90;;;6.33;100.00;97031.09;10984103;26;20274;-63
2024/04/17 04:03:50;;;;;;;4.30;4.00;;;5.60;99.90;;;6.20;100.00;97049.75;11041239;26;20265;-59
2024/04/17 04:08:56;;;;;;;4.70;4.40;;;5.50;99.90;;;6.14;100.00;97049.38;11050159;26;20388;-61
2024/04/17 04:14:01;;;;;;;5.13;4.73;;;5.50;99.90;;;6.07;100.00;97049.81;11007882;26;20902;-59
2024/04/17 04:19:09;;;;;;;5.60;5.10;;;5.50;99.90;;;6.00;100.00;97047.66;10961971;26;20259;-60
2024/04/17 04:24:15;;;;;;;4.70;4.40;;;5.40;99.90;;;5.98;100.00;97060.28;11071530;26;20256;-59
2024/04/17 04:29:20;;;;;;;4.67;4.27;;;5.40;99.90;;;5.98;100.00;97064.44;11102416;26;20745;-62
2024/04/17 04:34:28;;;;;;;5.40;4.93;;;5.40;99.90;;;5.95;100.00;97064.25;11094299;26;20248;-58
2024/04/17 04:39:34;;;;;;;6.00;5.50;;;5.30;99.90;;;5.91;100.00;97082.59;11095046;26;20336;-61
2024/04/17 04:44:39;;;;;;;6.23;5.73;;;5.30;99.90;;;5.93;100.00;97086.09;11094698;26;20307;-61
2024/04/17 04:49:47;;;;;;;6.57;5.93;;;5.30;99.90;;;6.03;100.00;97096.91;11117478;26;20251;-61
2024/04/17 04:54:53;;;;;;;6.03;5.53;;;5.40;99.90;;;6.13;100.00;97100.06;11101602;26;20259;-61
2024/04/17 04:59:58;;;;;;;5.90;5.40;;;5.50;99.90;;;6.31;100.00;97091.88;11118189;26;20298;-60
2024/04/17 05:05:08;;;;;;;6.03;5.53;;;5.60;99.90;;;6.28;100.00;97093.38;11115172;26;20414;-61
2024/04/17 05:10:13;;;;;;;6.50;5.90;;;5.50;99.90;;;6.36;100.00;97091.31;11116364;26;20770;-60
2024/04/17 05:15:19;;;;;;;7.03;6.43;;;5.60;99.90;;;6.47;100.00;97097.91;11120840;26;20294;-58
2024/04/17 05:20:29;;;;;;;9.20;8.40;;;5.70;99.90;;;6.51;100.00;97098.16;11117019;26;20268;-61
2024/04/17 05:25:34;;;;;;;6.50;6.00;;;5.70;99.90;;;6.55;100.00;97099.22;11114720;26;20294;-58
2024/04/17 05:30:40;;;;;;;7.57;6.97;;;5.60;99.90;;;6.40;100.00;97095.78;11108501;26;20255;-59
2024/04/17 05:35:48;;;;;;;8.87;8.07;;;5.70;99.90;;;6.52;100.00;97109.19;11105640;26;20362;-59
2024/04/17 05:40:54;;;;;;;7.70;7.10;;;5.70;99.90;;;6.61;100.00;97109.75;11116151;26;20256;-59
2024/04/17 05:46:00;;;;;;;9.03;8.13;;;5.80;99.90;;;6.63;100.00;97110.72;11115751;26;20251;-62
2024/04/17 05:51:08;;;;;;;8.33;7.63;;;5.80;99.90;;;6.58;100.00;97114.66;11106890;26;20678;-59
2024/04/17 05:56:14;;;;;;;8.73;8.03;;;5.90;99.90;;;6.62;100.00;97111.50;11118525;26;20637;-60
2024/04/17 06:01:20;;;;;;;7.67;6.97;;;6.00;99.90;;;6.57;100.00;97122.16;11114048;26;20314;-61
2024/04/17 06:06:28;;;;;;;8.73;7.93;;;5.90;99.90;;;6.76;100.00;97120.81;11114839;26;20777;-61
2024/04/17 06:11:33;;;;;;;9.80;8.90;;;6.00;99.90;;;6.79;100.00;97124.34;11100232;26;20301;-61
2024/04/17 06:16:39;;;;;;;8.00;7.30;;;6.00;99.90;;;6.83;100.00;97128.81;11113393;26;20259;-62
2024/04/17 06:21:47;;;;;;;7.47;6.77;;;6.10;99.90;;;6.87;100.00;97128.22;11106430;26;20296;-61
2024/04/17 06:26:52;;;;;;;8.97;8.27;;;6.10;99.90;;;6.91;100.00;97130.13;11093083;26;20603;-60
2024/04/17 06:31:58;;;;;;;8.60;7.87;;;6.20;99.90;;;6.94;100.00;97146.44;11095804;26;20302;-61
2024/04/17 06:37:06;;;;;;;7.43;6.83;;;6.20;99.90;;;6.89;100.00;97144.41;11111561;26;20643;-59
2024/04/17 06:42:12;;;;;;;7.50;6.90;;;6.20;99.90;;;7.01;100.00;97135.00;11111191;26;20299;-61
2024/04/17 06:47:17;;;;;;;8.90;8.10;;;6.30;99.90;;;7.02;100.00;97138.41;11120653;26;20629;-59
2024/04/17 06:52:27;;;;;;;8.40;7.60;;;6.30;99.90;;;7.08;100.00;97139.63;11096116;26;20298;-60
2024/04/17 06:57:32;;;;;;;9.43;8.63;;;6.30;99.90;;;7.18;100.00;97144.47;11102148;26;20369;-57
2024/04/17 07:02:38;;;;;;;8.53;7.77;;;6.40;99.90;;;7.25;100.00;97144.81;11111389;26;20291;-58
2024/04/17 07:07:58;;;;;;;98.37;39.10;;;6.40;99.90;;;7.19;100.00;97146.22;11114987;26;20735;-61
2024/04/17 07:13:04;;;;;;;15.60;13.50;;;6.40;99.90;;;7.21;100.00;97147.19;11115438;26;20251;-58
2024/04/17 07:18:10;;;;;;;10.33;9.43;;;6.40;99.90;;;7.20;100.00;97147.97;11117111;26;20252;-60
2024/04/17 07:23:18;;;;;;;10.53;9.63;;;6.40;99.90;;;7.13;100.00;97148.41;11105345;26;20848;-62
2024/04/17 07:28:24;;;;;;;18.77;16.77;;;6.40;99.90;;;7.19;100.00;97148.75;11113554;26;20291;-61
2024/04/17 07:33:29;;;;;;;9.93;9.13;;;6.40;99.90;;;7.03;100.00;97150.31;11116702;26;20256;-61
2024/04/17 07:38:38;;;;;;;14.77;13.50;;;6.40;99.90;;;6.81;100.00;97165.91;11112389;26;20251;-61
2024/04/17 07:43:43;;;;;;;8.20;7.50;;;6.30;99.90;;;6.95;100.00;97162.53;11117629;26;20252;-61
2024/04/17 07:48:50;;;;;;;6.90;6.30;;;6.30;99.90;;;7.08;100.00;97154.00;11115230;26;20364;-61
2024/04/17 07:53:58;;;;;;;6.60;6.03;;;6.40;99.90;;;7.28;100.00;97167.88;11105976;26;20267;-61
2024/04/17 07:59:04;;;;;;;6.20;5.60;;;6.40;99.90;;;7.27;100.00;97161.03;11110515;26;20299;-60
2024/04/17 08:04:10;;;;;;;5.70;4.77;;;6.50;99.90;;;7.23;100.00;97160.84;11120002;26;20780;-64
2024/04/17 08:09:18;;;;;;;5.80;5.40;;;6.50;99.90;;;7.37;100.00;97158.25;11116205;26;20621;-62
2024/04/17 08:14:24;;;;;;;4.40;4.00;;;6.60;99.90;;;7.26;100.00;97162.69;11114182;26;20302;-62
2024/04/17 08:19:30;;;;;;;5.90;5.50;;;6.60;99.90;;;7.50;100.00;97159.81;11108856;26;20251;-62
2024/04/17 08:24:38;;;;;;;5.80;5.40;;;6.90;99.90;;;7.54;100.00;97162.63;11110916;26;20289;-62
2024/04/17 08:29:43;;;;;;;6.93;6.33;;;6.90;99.90;;;7.80;100.00;97165.78;11112339;26;20244;-62
2024/04/17 08:34:49;;;;;;;7.37;6.77;;;7.20;99.90;;;7.90;100.00;97165.50;11109038;26;20260;-62
2024/04/17 08:39:59;;;;;;;7.77;7.07;;;7.20;99.90;;;7.89;100.00;97161.19;11100247;26;20260;-62
2024/04/17 08:45:11;;;;;;;8.33;7.63;;;7.20;99.90;;;7.75;100.00;97172.25;11092265;26;20261;-62
2024/04/17 08:50:18;;;;;;;8.83;8.10;;;7.10;99.90;;;7.47;100.00;97191.03;11098808;26;20315;-62
2024/04/17 08:55:27;;;;;;;9.00;8.20;;;6.90;99.90;;;7.37;100.00;97188.75;11100143;26;20609;-62
2024/04/17 09:00:33;;;;;;;6.97;6.37;;;6.90;99.90;;;7.35;100.00;97185.22;11107310;26;20840;-61
2024/04/17 09:05:39;;;;;;;10.37;9.17;;;6.80;99.90;;;7.79;100.00;97176.75;11103988;26;20315;-62
2024/04/17 09:10:48;;;;;;;8.97;7.70;;;7.10;99.90;;;8.00;100.00;97179.59;11106205;26;20302;-60
2024/04/17 09:15:54;;;;;;;7.03;6.43;;;7.30;99.90;;;8.19;100.00;97181.50;11108392;26;20745;-62
2024/04/17 09:21:01;;;;;;;6.40;5.80;;;7.40;99.90;;;7.98;100.00;97189.69;11106444;26;20302;-61
2024/04/17 09:26:18;;;;;;;5.73;5.23;;;7.30;99.90;;;7.93;100.00;97193.66;11092561;26;20688;-61
2024/04/17 09:31:24;;;;;;;5.60;5.10;;;7.20;99.90;;;7.80;100.00;97176.81;11107568;26;20255;-62
2024/04/17 09:36:29;;;;;;;5.90;5.40;;;7.10;99.90;;;7.89;100.00;97181.53;11112531;26;20643;-62
2024/04/17 09:41:39;;;;;;;6.47;5.97;;;7.20;99.90;;;8.25;100.00;97176.75;11110004;26;20256;-61
2024/04/17 09:46:59;;;;;;;6.27;5.77;;;7.50;99.90;;;8.32;100.00;97173.72;11098011;26;20740;-62
2024/04/17 09:52:07;;;;;;;6.07;5.57;;;7.60;99.90;;;8.55;100.00;97175.88;11101864;26;20287;-61
2024/04/17 09:57:16;;;;;;;6.10;5.60;;;7.90;99.90;;;8.86;100.00;97174.97;11107784;26;20278;-62
2024/04/17 10:02:22;;;;;;;5.60;5.20;;;8.30;99.90;;;9.15;100.00;97178.16;11161974;21;20255;-63
2024/04/17 10:07:29;;;;;;;7.20;6.50;;;8.50;99.90;;;9.69;100.00;97172.38;11196335;26;20254;-64
2024/04/17 10:12:39;;;;;;;6.43;5.83;;;9.10;99.90;;;9.63;100.00;97164.44;11185718;26;20714;-63
2024/04/17 10:17:44;;;;;;;4.83;4.43;;;8.90;99.90;;;9.45;100.00;97181.38;11192112;26;20795;-61
2024/04/17 10:22:50;;;;;;;5.33;4.93;;;8.60;99.90;;;8.87;100.00;97199.66;11189235;26;20258;-61
2024/04/17 10:28:05;;;;;;;6.93;6.23;;;8.10;99.90;;;8.36;100.00;97201.13;11183002;26;20250;-63
2024/04/17 10:33:22;;;;;;;6.70;6.10;;;7.50;99.90;;;7.63;100.00;97200.41;11188300;26;20835;-63
2024/04/17 10:38:29;;;;;;;8.33;7.53;;;7.10;99.90;;;7.25;100.00;97218.53;11193211;26;20365;-63
2024/04/17 10:43:43;;;;;;;9.27;8.47;;;6.70;99.90;;;7.31;100.00;97216.34;11181444;26;20258;-63
2024/04/17 10:48:49;;;;;;;8.70;7.80;;;6.50;99.90;;;7.05;100.00;97219.88;11175234;26;20330;-63
2024/04/17 10:53:58;;;;;;;10.10;9.10;;;6.40;99.90;;;6.74;100.00;97240.88;11189084;26;20365;-63
2024/04/17 10:59:07;;;;;;;7.13;6.50;;;6.20;99.90;;;6.67;100.00;97244.72;11192920;26;20254;-63
2024/04/17 11:04:13;;;;;;;6.80;6.23;;;6.20;99.90;;;6.42;100.00;97251.56;11197585;26;20355;-64
2024/04/17 11:09:19;;;;;;;5.70;5.30;;;5.90;99.90;;;6.37;100.00;97250.41;11196601;26;20287;-63
2024/04/17 11:14:27;;;;;;;5.73;5.20;;;5.80;99.90;;;6.37;100.00;97258.00;11195787;26;20259;-63
2024/04/17 11:19:33;;;;;;;5.87;5.20;;;5.90;99.90;;;6.70;100.00;97233.88;11197423;26;20251;-63
2024/04/17 11:24:38;;;;;;;4.43;4.13;;;6.10;99.90;;;7.07;100.00;97231.91;11197049;26;20254;-63
2024/04/17 11:29:47;;;;;;;4.93;4.43;;;6.30;99.90;;;7.40;100.00;97229.59;11195565;26;20309;-63
2024/04/17 11:34:54;;;;;;;4.77;4.37;;;6.70;99.90;;;7.56;100.00;97227.16;11188309;26;20301;-63
2024/04/17 11:40:01;;;;;;;4.90;4.50;;;7.00;99.90;;;7.94;100.00;97225.94;11185100;26;20267;-61
2024/04/17 11:45:12;;;;;;;5.30;4.90;;;7.40;99.90;;;8.18;100.00;97221.34;11177949;26;20254;-63
2024/04/17 11:50:17;;;;;;;5.97;5.47;;;7.60;99.90;;;8.34;100.00;97221.41;11193561;26;20294;-59
2024/04/17 11:55:23;;;;;;;6.23;5.70;;;7.90;99.90;;;8.48;100.00;97211.16;11196184;26;20267;-63
2024/04/17 12:00:31;;;;;;;6.63;5.90;;;8.10;99.90;;;8.74;100.00;97210.00;11193262;26;20255;-63
2024/04/17 12:05:36;;;;;;;6.57;5.70;;;8.20;99.90;;;8.94;100.00;97206.81;11192407;26;20397;-64
2024/04/17 12:10:42;;;;;;;50.07;35.47;;;8.20;99.90;;;9.06;100.00;97213.38;11195048;26;20255;-62
2024/04/17 12:15:50;;;;;;;8.43;7.63;;;8.50;99.90;;;9.11;100.00;97219.59;11186608;26;20255;-62
2024/04/17 12:20:56;;;;;;;8.50;7.70;;;8.40;99.90;;;8.61;100.00;97228.81;11194152;26;20389;-64
2024/04/17 12:31:25;;;;;;;6.33;5.73;;;7.60;99.90;;;7.40;100.00;97235.56;11192784;26;20702;-64
2024/04/17 12:36:32;;;;;;;6.53;5.97;;;6.90;99.90;;;7.00;100.00;97227.22;11189710;26;20255;-63
2024/04/17 12:41:37;;;;;;;8.60;6.03;;;6.60;99.90;;;6.90;100.00;97207.13;11186652;26;20262;-62
2024/04/17 12:46:45;;;;;;;9.80;8.80;;;6.40;99.90;;;6.75;100.00;97195.28;11194032;26;20723;-64
2024/04/17 12:51:52;;;;;;;8.73;7.83;;;6.30;99.90;;;6.80;100.00;97207.34;11179945;26;20297;-63
2024/04/17 12:56:57;;;;;;;6.40;5.80;;;6.40;99.90;;;7.05;100.00;97220.75;11191388;26;20266;-63
2024/04/17 13:02:06;;;;;;;8.20;5.67;;;6.60;99.90;;;7.07;100.00;97226.81;11190615;26;20254;-63
2024/04/17 13:07:21;;;;;;;7.27;6.57;;;6.60;99.90;;;7.13;100.00;97226.31;11189182;26;20281;-64
2024/04/17 13:12:26;;;;;;;8.87;6.37;;;6.60;99.90;;;7.36;100.00;97218.38;11187501;26;20294;-64
2024/04/17 13:17:34;;;;;;;7.47;6.37;;;6.70;99.90;;;7.28;100.00;97204.34;11191124;26;20718;-64
2024/04/17 13:22:40;;;;;;;6.80;6.10;;;6.80;99.90;;;7.51;100.00;97203.13;11186144;26;20323;-63
2024/04/17 13:27:55;;;;;;;6.43;5.50;;;6.80;99.90;;;7.58;100.00;97192.53;11184271;26;20297;-64
2024/04/17 13:33:04;;;;;;;7.27;6.20;;;7.00;99.90;;;7.70;100.00;97189.81;11186240;26;20288;-64
2024/04/17 13:38:10;;;;;;;6.67;6.07;;;7.00;99.90;;;7.74;100.00;97191.75;11186482;26;20250;-64
2024/04/17 13:43:15;;;;;;;6.23;5.60;;;7.10;99.90;;;7.95;100.00;97181.88;11181211;26;20305;-63
2024/04/17 13:48:23;;;;;;;6.63;4.90;;;7.30;99.90;;;8.12;100.00;97178.59;11181535;26;20255;-64
2024/04/17 13:53:29;;;;;;;4.80;4.40;;;7.40;99.90;;;8.35;100.00;97176.44;11181211;26;20298;-64
2024/04/17 13:58:35;;;;;;;4.87;3.60;;;7.60;99.90;;;8.45;100.00;97176.19;11184075;26;20251;-63
2024/04/17 14:03:43;;;;;;;4.03;3.63;;;7.80;99.90;;;8.42;100.00;97165.84;11181255;26;20255;-64
2024/04/17 14:08:49;;;;;;;4.77;4.17;;;7.80;99.90;;;8.66;100.00;97161.19;11176923;26;20645;-64
2024/04/17 14:13:55;;;;;;;6.03;5.30;;;8.10;99.90;;;8.71;100.00;97159.75;11179081;26;20293;-64
2024/04/17 14:19:03;;;;;;;5.70;5.20;;;8.20;99.90;;;8.85;100.00;97167.25;11183401;26;20254;-65
2024/04/17 14:24:09;;;;;;;6.20;5.60;;;8.30;99.90;;;8.90;100.00;97163.25;11179263;26;20259;-66
2024/04/17 14:29:15;;;;;;;7.93;6.40;;;8.40;99.90;;;8.96;100.00;97167.00;11181781;26;20260;-65
2024/04/17 14:34:23;;;;;;;6.93;5.83;;;8.50;99.90;;;9.14;100.00;97163.66;11174289;26;20250;-65
2024/04/17 14:39:30;;;;;;;7.10;6.00;;;8.60;99.90;;;9.27;100.00;97168.59;11180424;26;20793;-65
2024/04/17 14:44:38;;;;;;;7.27;6.67;;;8.70;99.90;;;9.32;100.00;97172.22;11176688;26;20322;-65
2024/04/17 14:49:49;;;;;;;7.87;7.07;;;8.60;99.90;;;9.37;100.00;97165.69;11177082;26;20254;-65
2024/04/17 14:54:55;;;;;;;7.70;7.10;;;8.70;99.90;;;9.25;100.00;97165.09;11174497;26;20247;-65
2024/04/17 15:00:00;;;;;;;7.47;6.73;;;8.60;99.90;;;9.09;100.00;97173.59;11176962;26;20297;-66
2024/04/17 15:05:09;;;;;;;8.60;7.10;;;8.40;99.90;;;9.01;100.00;97172.34;11176406;26;20262;-65
2024/04/17 15:10:19;;;;;;;8.20;7.37;;;8.30;99.90;;;8.88;100.00;97163.19;11175403;26;20293;-64
2024/04/17 15:15:24;;;;;;;17.03;10.57;;;8.10;99.90;;;9.05;100.00;97169.16;11182394;26;20274;-65
2024/04/17 15:20:32;;;;;;;14.30;9.47;;;8.20;99.90;;;8.94;100.00;97163.50;11180083;26;20293;-62
2024/04/17 15:25:38;;;;;;;10.27;7.10;;;8.20;99.90;;;8.94;100.00;97158.41;11175209;26;20292;-63
2024/04/17 15:30:43;;;;;;;7.77;6.70;;;8.30;99.90;;;9.00;100.00;97162.94;11177173;26;20285;-62
2024/04/17 15:35:52;;;;;;;7.43;6.77;;;8.30;99.90;;;9.06;100.00;97163.25;11176996;26;20293;-64
2024/04/17 15:41:03;;;;;;;7.50;6.80;;;8.40;99.90;;;9.17;99.36;97153.63;11184243;26;20359;-64
2024/04/17 15:46:11;;;;;;;7.60;6.87;;;8.60;99.90;;;9.31;98.94;97155.19;11177690;26;20256;-63
2024/04/17 15:51:20;;;;;;;7.60;6.80;;;8.70;99.90;;;9.33;100.00;97153.59;11170862;26;20364;-64
2024/04/17 15:56:27;;;;;;;7.13;6.43;;;8.60;99.90;;;9.24;95.37;97146.38;11187752;26;20255;-65
2024/04/17 16:01:33;;;;;;;8.60;6.67;;;8.60;99.90;;;9.31;100.00;97152.63;11147043;21;20265;-64
2024/04/17 16:06:41;;;;;;;7.17;6.57;;;8.50;99.90;;;9.18;99.95;97147.72;11040452;26;20259;-65
2024/04/17 16:11:46;;;;;;;8.50;7.23;;;8.50;99.90;;;9.07;99.81;97146.28;11045413;26;20658;-65
2024/04/17 16:16:54;;;;;;;7.23;6.53;;;8.40;99.90;;;9.14;100.00;97148.38;11022969;26;20705;-62
2024/04/17 16:22:06;;;;;;;7.33;6.63;;;8.30;99.90;;;9.01;100.00;97157.03;11032114;26;20779;-64
2024/04/17 16:27:11;;;;;;;7.57;6.77;;;8.20;99.90;;;8.72;98.05;97155.53;11032513;26;20621;-64
2024/04/17 16:32:18;;;;;;;8.27;7.33;;;8.10;99.90;;;8.57;100.00;97151.38;11031634;26;20651;-64
2024/04/17 16:37:26;;;;;;;7.83;6.93;;;8.00;99.90;;;8.49;100.00;97152.63;11045496;26;20299;-63
2024/04/17 16:42:32;;;;;;;6.90;6.30;;;7.80;99.90;;;8.18;99.12;97156.84;11038030;26;20256;-64
2024/04/17 16:47:37;;;;;;;7.70;6.90;;;7.60;99.90;;;8.24;100.00;97164.81;11040179;26;20257;-64
2024/04/17 16:52:45;;;;;;;8.03;7.27;;;7.60;99.90;;;8.17;100.00;97173.78;11042109;26;20268;-62
2024/04/17 16:57:51;;;;;;;8.27;7.43;;;7.60;99.90;;;8.21;100.00;97169.72;11041332;26;20264;-64
2024/04/17 17:02:56;;;;;;;9.20;8.30;;;7.60;99.90;;;8.26;100.00;97184.47;11029764;26;20260;-64
2024/04/17 17:08:05;;;;;;;8.43;7.63;;;7.60;99.90;;;8.27;100.00;97200.59;11022102;26;20257;-63
2024/04/17 17:13:10;;;;;;;17.17;9.50;;;7.70;99.90;;;8.43;100.00;97221.06;11020887;26;20299;-62
2024/04/17 17:18:16;;;;;;;6.63;5.50;;;7.60;99.90;;;7.93;94.00;97252.19;11016912;26;20300;-64
2024/04/17 17:23:27;;;;;;;9.07;6.70;;;7.30;99.90;;;7.20;98.85;97277.56;11025188;26;20296;-62
2024/04/17 17:28:33;;;;;;;29.93;19.27;;;6.40;99.90;;;6.63;100.00;97296.06;11022323;26;20321;-63
2024/04/17 17:33:39;;;;;;;12.10;9.37;;;5.80;99.90;;;6.24;100.00;97292.75;11039135;26;20325;-63
2024/04/17 17:38:48;;;;;;;8.40;7.60;;;5.60;99.90;;;6.12;100.00;97299.56;11039981;26;20790;-63
2024/04/17 17:44:11;;;;;;;7.50;6.87;;;5.40;99.90;;;6.02;100.00;97294.69;11037762;26;20324;-63
2024/04/17 17:49:16;;;;;;;5.50;5.10;;;5.40;99.90;;;5.80;100.00;97294.91;11035667;26;20257;-64
2024/04/17 17:54:25;;;;;;;5.20;4.80;;;5.30;99.90;;;5.65;100.00;97294.75;11032678;26;20453;-62
2024/04/17 17:59:30;;;;;;;8.20;7.50;;;5.20;99.90;;;5.64;100.00;97293.91;11034980;26;20257;-64
2024/04/17 18:04:36;;;;;;;5.77;5.27;;;5.20;99.90;;;5.69;100.00;97304.31;11029238;26;20295;-63
2024/04/17 18:09:44;;;;;;;6.03;5.53;;;5.30;99.90;;;5.68;100.00;97305.09;11035701;26;20296;-65
2024/04/17 18:14:51;;;;;;;12.60;9.80;;;5.30;99.90;;;5.78;100.00;97302.41;11034051;26;20265;-65
2024/04/17 18:19:58;;;;;;;52.47;33.97;;;5.30;99.90;;;5.79;100.00;97309.25;11035096;26;20728;-66
2024/04/17 18:25:07;;;;;;;120.53;60.70;;;5.30;99.90;;;5.78;100.00;97317.63;11032202;26;20300;-64
2024/04/17 18:30:14;;;;;;;9.07;8.13;;;5.30;99.90;;;5.86;100.00;97321.53;11040312;26;20295;-64
2024/04/17 18:35:20;;;;;;;7.27;6.57;;;5.30;99.90;;;5.79;100.00;97323.59;11034312;26;20316;-63
2024/04/17 18:40:28;;;;;;;8.30;6.37;;;5.30;99.90;;;5.79;100.00;97318.50;11041516;26;20625;-64
2024/04/17 18:45:36;;;;;;;6.13;5.53;;;5.30;99.90;;;5.80;100.00;97325.31;11041081;26;20257;-64
2024/04/17 18:50:42;;;;;;;6.20;5.70;;;5.30;99.90;;;5.69;100.00;97326.25;11016395;26;20299;-64
2024/04/17 18:55:50;;;;;;;6.40;5.80;;;5.20;99.90;;;5.73;100.00;97328.25;11028607;26;20726;-64
2024/04/17 19:00:56;;;;;;;9.03;8.23;;;5.20;99.90;;;5.62;100.00;97335.13;11029127;26;20303;-65
2024/04/17 19:06:03;;;;;;;6.90;5.83;;;5.20;99.90;;;5.60;100.00;97337.53;11026488;26;20257;-65
2024/04/17 19:11:13;;;;;;;7.57;6.77;;;5.10;99.90;;;5.59;100.00;97352.66;11029662;26;20252;-64
2024/04/17 19:16:20;;;;;;;9.33;8.60;;;5.10;99.90;;;5.51;100.00;97346.19;11027669;26;20374;-64
2024/04/17 19:21:27;;;;;;;20.83;12.60;;;5.00;99.90;;;5.51;100.00;97347.06;11022036;26;20769;-62
2024/04/17 19:26:37;;;;;;;11.57;9.13;;;4.90;99.90;;;5.49;100.00;97348.59;11013682;26;20289;-64
2024/04/17 19:31:43;;;;;;;14.03;12.63;;;4.90;99.90;;;5.51;100.00;97351.25;11026163;26;20300;-65
2024/04/17 19:36:48;;;;;;;9.83;8.90;;;4.80;99.90;;;5.44;100.00;97370.25;11023869;26;20261;-64
2024/04/17 19:41:57;;;;;;;63.57;33.90;;;4.80;99.90;;;5.19;100.00;97372.72;11028738;26;20584;-64
2024/04/17 19:47:07;;;;;;;34.47;23.87;;;4.60;99.90;;;5.23;100.00;97354.41;11021773;26;20257;-64
2024/04/17 19:52:13;;;;;;;10.53;9.07;;;4.70;99.90;;;5.09;100.00;97367.78;11022003;26;20830;-66
2024/04/17 19:57:23;;;;;;;8.63;7.73;;;4.50;99.90;;;5.12;100.00;97368.91;11035187;26;20253;-64
2024/04/17 20:02:29;;;;;;;8.50;7.67;;;4.60;99.90;;;5.17;100.00;97366.66;11038056;26;20738;-63
2024/04/17 20:07:35;;;;;;;8.93;7.70;;;4.60;99.90;;;5.10;100.00;97367.91;11033269;26;20374;-64
2024/04/17 20:12:43;;;;;;;19.40;17.03;;;4.60;99.90;;;4.95;100.00;97370.25;11031777;26;20303;-64
2024/04/17 20:17:50;;;;;;;10.53;9.57;;;4.40;99.90;;;5.01;100.00;97371.44;11043160;26;20865;-64
2024/04/17 20:22:55;;;;;;;8.87;7.97;;;4.50;99.90;;;4.95;100.00;97366.81;11039886;26;20263;-63
2024/04/17 20:28:04;;;;;;;9.70;8.80;;;4.40;99.90;;;5.04;100.00;97366.59;11032919;26;20301;-62
2024/04/17 20:33:10;;;;;;;11.77;10.73;;;4.60;99.90;;;5.20;100.00;97361.81;11038365;26;20841;-64
2024/04/17 20:38:15;;;;;;;11.20;10.20;;;4.60;99.90;;;5.25;100.00;97363.03;11042497;26;20291;-64
2024/04/17 20:43:24;;;;;;;12.67;11.30;;;4.60;99.90;;;5.23;100.00;97359.50;11039593;26;20290;-62
2024/04/17 20:48:30;;;;;;;11.43;10.43;;;4.60;99.90;;;5.08;100.00;97355.91;11036176;26;20800;-64
2024/04/17 20:53:36;;;;;;;11.67;10.47;;;4.50;99.90;;;5.10;100.00;97364.50;11041042;26;20712;-62
2024/04/17 20:58:44;;;;;;;11.07;9.97;;;4.50;99.90;;;5.13;100.00;97372.31;11030830;26;20305;-63
2024/04/17 21:03:49;;;;;;;12.33;11.07;;;4.60;99.90;;;5.17;100.00;97369.19;11030206;26;20257;-63
2024/04/17 21:08:55;;;;;;;11.77;10.70;;;4.60;99.90;;;5.12;100.00;97371.44;11038540;26;20303;-63
2024/04/17 21:14:04;;;;;;;16.17;14.67;;;4.60;99.90;;;5.23;100.00;97369.63;11037191;26;20299;-64
2024/04/17 21:19:09;;;;;;;12.07;10.87;;;4.70;99.90;;;5.16;100.00;97364.91;11039237;26;20299;-64
2024/04/17 21:24:15;;;;;;;10.43;9.53;;;4.60;99.90;;;5.12;100.00;97366.38;11036285;26;20288;-62
2024/04/17 21:29:23;;;;;;;12.07;10.87;;;4.50;99.90;;;5.04;100.00;97366.59;11027841;26;20296;-63
2024/04/17 21:34:28;;;;;;;14.60;13.20;;;4.50;99.90;;;4.95;100.00;97362.66;11022995;26;20283;-64
2024/04/17 21:39:34;;;;;;;12.63;11.47;;;4.40;99.90;;;4.95;100.00;97372.78;11033905;26;20260;-64